sensor_id;sensor_type;location;lat;lon;timestamp;P1;durP1;ratioP1;P2;durP2;ratioP2
47455;SDS011;33202;48.512;-2.780;2023-04-21T00:02:37;3.45;;;1.40;;
47455;SDS011;33202;48.512;-2.780;2023-04-21T00:05:07;5.18;;;1.73;;
47455;SDS011;33202;48.512;-2.780;2023-04-21T00:07:35;5.30;;;1.80;;
47455;SDS011;33202;48.512;-2.780;2023-04-21T00:10:02;7.85;;;1.77;;
47455;SDS011;33202;48.512;-2.780;2023-04-21T00:12:28;4.68;;;2.10;;
47455;SDS011;33202;48.512;-2.780;2023-04-21T00:14:54;7.82;;;2.13;;
47455;SDS011;33202;48.512;-2.780;2023-04-21T00:17:20;4.95;;;1.80;;
47455;SDS011;33202;48.512;-2.780;2023-04-21T00:19:46;5.60;;;1.88;;
47455;SDS011;33202;48.512;-2.780;2023-04-21T00:22:12;7.13;;;1.67;;
47455;SDS011;33202;48.512;-2.780;2023-04-21T00:24:39;4.57;;;1.73;;
47455;SDS011;33202;48.512;-2.780;2023-04-21T00:27:05;6.88;;;1.98;;
47455;SDS011;33202;48.512;-2.780;2023-04-21T00:29:31;5.85;;;1.83;;
47455;SDS011;33202;48.512;-2.780;2023-04-21T00:31:57;6.03;;;1.70;;
47455;SDS011;33202;48.512;-2.780;2023-04-21T00:34:23;7.15;;;1.80;;
47455;SDS011;33202;48.512;-2.780;2023-04-21T00:36:49;7.35;;;1.98;;
47455;SDS011;33202;48.512;-2.780;2023-04-21T00:39:16;5.47;;;1.98;;
47455;SDS011;33202;48.512;-2.780;2023-04-21T00:41:42;5.50;;;1.75;;
47455;SDS011;33202;48.512;-2.780;2023-04-21T00:44:09;7.68;;;1.92;;
47455;SDS011;33202;48.512;-2.780;2023-04-21T00:46:35;4.85;;;1.50;;
47455;SDS011;33202;48.512;-2.780;2023-04-21T00:49:03;8.98;;;2.00;;
47455;SDS011;33202;48.512;-2.780;2023-04-21T00:51:29;5.20;;;2.00;;
47455;SDS011;33202;48.512;-2.780;2023-04-21T00:53:57;5.85;;;1.67;;
47455;SDS011;33202;48.512;-2.780;2023-04-21T00:56:23;3.63;;;1.63;;
47455;SDS011;33202;48.512;-2.780;2023-04-21T00:58:50;4.45;;;1.83;;
47455;SDS011;33202;48.512;-2.780;2023-04-21T01:01:17;7.10;;;1.92;;
47455;SDS011;33202;48.512;-2.780;2023-04-21T01:03:43;5.30;;;1.65;;
47455;SDS011;33202;48.512;-2.780;2023-04-21T01:06:11;6.82;;;2.42;;
47455;SDS011;33202;48.512;-2.780;2023-04-21T01:08:37;5.68;;;2.15;;
47455;SDS011;33202;48.512;-2.780;2023-04-21T01:11:09;6.35;;;1.83;;
47455;SDS011;33202;48.512;-2.780;2023-04-21T01:13:36;4.88;;;2.10;;
47455;SDS011;33202;48.512;-2.780;2023-04-21T01:16:02;6.47;;;1.80;;
47455;SDS011;33202;48.512;-2.780;2023-04-21T01:18:28;5.45;;;1.80;;
47455;SDS011;33202;48.512;-2.780;2023-04-21T01:20:54;4.57;;;1.77;;
47455;SDS011;33202;48.512;-2.780;2023-04-21T01:23:22;7.32;;;2.20;;
47455;SDS011;33202;48.512;-2.780;2023-04-21T01:25:49;5.20;;;1.80;;
47455;SDS011;33202;48.512;-2.780;2023-04-21T01:28:20;5.78;;;2.05;;
47455;SDS011;33202;48.512;-2.780;2023-04-21T01:30:46;6.75;;;2.58;;
47455;SDS011;33202;48.512;-2.780;2023-04-21T01:33:12;9.30;;;2.33;;
47455;SDS011;33202;48.512;-2.780;2023-04-21T01:35:38;6.55;;;2.58;;
47455;SDS011;33202;48.512;-2.780;2023-04-21T01:38:05;5.32;;;2.33;;
47455;SDS011;33202;48.512;-2.780;2023-04-21T01:40:31;5.85;;;2.28;;
47455;SDS011;33202;48.512;-2.780;2023-04-21T01:42:57;8.23;;;2.17;;
47455;SDS011;33202;48.512;-2.780;2023-04-21T01:45:23;5.97;;;1.92;;
47455;SDS011;33202;48.512;-2.780;2023-04-21T01:47:49;9.20;;;2.53;;
47455;SDS011;33202;48.512;-2.780;2023-04-21T01:50:15;5.82;;;2.00;;
47455;SDS011;33202;48.512;-2.780;2023-04-21T01:52:42;7.37;;;2.70;;
47455;SDS011;33202;48.512;-2.780;2023-04-21T01:55:08;6.68;;;2.30;;
47455;SDS011;33202;48.512;-2.780;2023-04-21T01:57:34;8.35;;;2.97;;
47455;SDS011;33202;48.512;-2.780;2023-04-21T02:00:00;8.43;;;3.40;;
47455;SDS011;33202;48.512;-2.780;2023-04-21T02:02:27;9.02;;;2.92;;
47455;SDS011;33202;48.512;-2.780;2023-04-21T02:04:53;8.20;;;2.70;;
47455;SDS011;33202;48.512;-2.780;2023-04-21T02:07:19;10.63;;;3.20;;
47455;SDS011;33202;48.512;-2.780;2023-04-21T02:09:45;11.20;;;3.05;;
47455;SDS011;33202;48.512;-2.780;2023-04-21T02:12:11;12.05;;;2.80;;
47455;SDS011;33202;48.512;-2.780;2023-04-21T02:14:37;8.35;;;2.80;;
47455;SDS011;33202;48.512;-2.780;2023-04-21T02:17:03;9.48;;;3.47;;
47455;SDS011;33202;48.512;-2.780;2023-04-21T02:19:29;7.18;;;2.97;;
47455;SDS011;33202;48.512;-2.780;2023-04-21T02:21:55;8.40;;;3.25;;
47455;SDS011;33202;48.512;-2.780;2023-04-21T02:24:21;7.85;;;3.50;;
47455;SDS011;33202;48.512;-2.780;2023-04-21T02:26:47;9.20;;;3.78;;
47455;SDS011;33202;48.512;-2.780;2023-04-21T02:29:13;14.82;;;3.90;;
47455;SDS011;33202;48.512;-2.780;2023-04-21T02:31:39;11.13;;;3.47;;
47455;SDS011;33202;48.512;-2.780;2023-04-21T02:34:06;8.07;;;3.63;;
47455;SDS011;33202;48.512;-2.780;2023-04-21T02:36:32;8.95;;;3.50;;
47455;SDS011;33202;48.512;-2.780;2023-04-21T02:38:58;9.60;;;3.80;;
47455;SDS011;33202;48.512;-2.780;2023-04-21T02:41:24;8.77;;;4.03;;
47455;SDS011;33202;48.512;-2.780;2023-04-21T02:43:50;7.25;;;3.33;;
47455;SDS011;33202;48.512;-2.780;2023-04-21T02:46:16;10.68;;;4.20;;
47455;SDS011;33202;48.512;-2.780;2023-04-21T02:48:42;9.40;;;4.30;;
47455;SDS011;33202;48.512;-2.780;2023-04-21T02:51:11;12.73;;;4.57;;
47455;SDS011;33202;48.512;-2.780;2023-04-21T02:53:38;10.60;;;3.85;;
47455;SDS011;33202;48.512;-2.780;2023-04-21T02:56:04;8.40;;;4.32;;
47455;SDS011;33202;48.512;-2.780;2023-04-21T02:58:31;8.82;;;4.57;;
47455;SDS011;33202;48.512;-2.780;2023-04-21T03:00:57;8.82;;;3.92;;
47455;SDS011;33202;48.512;-2.780;2023-04-21T03:03:23;9.18;;;4.45;;
47455;SDS011;33202;48.512;-2.780;2023-04-21T03:05:54;9.77;;;4.57;;
47455;SDS011;33202;48.512;-2.780;2023-04-21T03:08:20;10.65;;;4.75;;
47455;SDS011;33202;48.512;-2.780;2023-04-21T03:10:46;11.98;;;5.07;;
47455;SDS011;33202;48.512;-2.780;2023-04-21T03:13:12;12.43;;;5.05;;
47455;SDS011;33202;48.512;-2.780;2023-04-21T03:15:38;10.48;;;5.30;;
47455;SDS011;33202;48.512;-2.780;2023-04-21T03:18:04;9.73;;;4.65;;
47455;SDS011;33202;48.512;-2.780;2023-04-21T03:20:30;9.73;;;5.03;;
47455;SDS011;33202;48.512;-2.780;2023-04-21T03:22:56;11.15;;;5.22;;
47455;SDS011;33202;48.512;-2.780;2023-04-21T03:25:22;10.48;;;5.07;;
47455;SDS011;33202;48.512;-2.780;2023-04-21T03:27:49;7.30;;;5.07;;
47455;SDS011;33202;48.512;-2.780;2023-04-21T03:30:15;13.75;;;5.70;;
47455;SDS011;33202;48.512;-2.780;2023-04-21T03:32:41;9.60;;;4.80;;
47455;SDS011;33202;48.512;-2.780;2023-04-21T03:35:07;10.00;;;4.88;;
47455;SDS011;33202;48.512;-2.780;2023-04-21T03:37:33;11.80;;;5.70;;
47455;SDS011;33202;48.512;-2.780;2023-04-21T03:39:59;9.02;;;5.82;;
47455;SDS011;33202;48.512;-2.780;2023-04-21T03:42:25;9.13;;;6.40;;
47455;SDS011;33202;48.512;-2.780;2023-04-21T03:44:51;11.95;;;6.72;;
47455;SDS011;33202;48.512;-2.780;2023-04-21T03:47:17;12.07;;;7.47;;
47455;SDS011;33202;48.512;-2.780;2023-04-21T03:49:43;12.60;;;7.45;;
47455;SDS011;33202;48.512;-2.780;2023-04-21T03:52:09;14.60;;;8.00;;
47455;SDS011;33202;48.512;-2.780;2023-04-21T03:54:35;14.53;;;8.57;;
47455;SDS011;33202;48.512;-2.780;2023-04-21T03:57:01;13.18;;;8.27;;
47455;SDS011;33202;48.512;-2.780;2023-04-21T03:59:27;16.10;;;8.95;;
47455;SDS011;33202;48.512;-2.780;2023-04-21T04:01:53;15.82;;;8.38;;
47455;SDS011;33202;48.512;-2.780;2023-04-21T04:04:19;17.10;;;9.60;;
47455;SDS011;33202;48.512;-2.780;2023-04-21T04:06:45;16.38;;;9.65;;
47455;SDS011;33202;48.512;-2.780;2023-04-21T04:09:11;15.30;;;9.35;;
47455;SDS011;33202;48.512;-2.780;2023-04-21T04:11:37;14.52;;;10.13;;
47455;SDS011;33202;48.512;-2.780;2023-04-21T04:14:03;17.52;;;10.90;;
47455;SDS011;33202;48.512;-2.780;2023-04-21T04:16:29;16.92;;;11.30;;
47455;SDS011;33202;48.512;-2.780;2023-04-21T04:18:55;19.23;;;11.48;;
47455;SDS011;33202;48.512;-2.780;2023-04-21T04:21:21;21.30;;;12.20;;
47455;SDS011;33202;48.512;-2.780;2023-04-21T04:23:48;18.85;;;12.75;;
47455;SDS011;33202;48.512;-2.780;2023-04-21T04:26:16;19.67;;;12.32;;
47455;SDS011;33202;48.512;-2.780;2023-04-21T04:28:42;21.23;;;13.48;;
47455;SDS011;33202;48.512;-2.780;2023-04-21T04:31:08;18.85;;;13.23;;
47455;SDS011;33202;48.512;-2.780;2023-04-21T04:33:34;17.73;;;13.00;;
47455;SDS011;33202;48.512;-2.780;2023-04-21T04:36:00;18.63;;;12.57;;
47455;SDS011;33202;48.512;-2.780;2023-04-21T04:38:26;18.45;;;13.23;;
47455;SDS011;33202;48.512;-2.780;2023-04-21T04:40:54;18.85;;;12.85;;
47455;SDS011;33202;48.512;-2.780;2023-04-21T04:43:25;20.27;;;13.27;;
47455;SDS011;33202;48.512;-2.780;2023-04-21T04:45:51;21.25;;;13.25;;
47455;SDS011;33202;48.512;-2.780;2023-04-21T04:48:17;18.45;;;12.85;;
47455;SDS011;33202;48.512;-2.780;2023-04-21T04:50:43;21.20;;;13.65;;
47455;SDS011;33202;48.512;-2.780;2023-04-21T04:53:09;22.75;;;13.73;;
47455;SDS011;33202;48.512;-2.780;2023-04-21T04:55:35;21.45;;;14.38;;
47455;SDS011;33202;48.512;-2.780;2023-04-21T04:58:02;23.73;;;14.00;;
47455;SDS011;33202;48.512;-2.780;2023-04-21T05:00:28;23.77;;;13.85;;
47455;SDS011;33202;48.512;-2.780;2023-04-21T05:02:54;19.20;;;13.20;;
47455;SDS011;33202;48.512;-2.780;2023-04-21T05:05:20;23.33;;;14.57;;
47455;SDS011;33202;48.512;-2.780;2023-04-21T05:07:48;20.00;;;13.82;;
47455;SDS011;33202;48.512;-2.780;2023-04-21T05:10:14;19.50;;;13.90;;
47455;SDS011;33202;48.512;-2.780;2023-04-21T05:12:40;20.08;;;13.52;;
47455;SDS011;33202;48.512;-2.780;2023-04-21T05:15:06;19.15;;;13.45;;
47455;SDS011;33202;48.512;-2.780;2023-04-21T05:17:33;21.60;;;14.35;;
47455;SDS011;33202;48.512;-2.780;2023-04-21T05:19:59;21.40;;;14.55;;
47455;SDS011;33202;48.512;-2.780;2023-04-21T05:22:25;22.10;;;13.80;;
47455;SDS011;33202;48.512;-2.780;2023-04-21T05:24:51;19.33;;;14.40;;
47455;SDS011;33202;48.512;-2.780;2023-04-21T05:27:17;20.73;;;14.32;;
47455;SDS011;33202;48.512;-2.780;2023-04-21T05:29:43;20.23;;;13.20;;
47455;SDS011;33202;48.512;-2.780;2023-04-21T05:32:09;19.42;;;14.60;;
47455;SDS011;33202;48.512;-2.780;2023-04-21T05:34:36;20.77;;;14.97;;
47455;SDS011;33202;48.512;-2.780;2023-04-21T05:37:02;22.48;;;14.00;;
47455;SDS011;33202;48.512;-2.780;2023-04-21T05:39:28;21.95;;;14.65;;
47455;SDS011;33202;48.512;-2.780;2023-04-21T05:41:54;21.48;;;14.82;;
47455;SDS011;33202;48.512;-2.780;2023-04-21T05:44:20;21.63;;;14.77;;
47455;SDS011;33202;48.512;-2.780;2023-04-21T05:46:46;20.75;;;14.77;;
47455;SDS011;33202;48.512;-2.780;2023-04-21T05:49:12;19.85;;;13.82;;
47455;SDS011;33202;48.512;-2.780;2023-04-21T05:51:38;19.92;;;14.68;;
47455;SDS011;33202;48.512;-2.780;2023-04-21T05:54:04;19.83;;;13.80;;
47455;SDS011;33202;48.512;-2.780;2023-04-21T05:56:30;25.77;;;15.32;;
47455;SDS011;33202;48.512;-2.780;2023-04-21T05:58:56;20.60;;;14.75;;
47455;SDS011;33202;48.512;-2.780;2023-04-21T06:01:22;20.70;;;14.27;;
47455;SDS011;33202;48.512;-2.780;2023-04-21T06:03:48;20.15;;;14.60;;
47455;SDS011;33202;48.512;-2.780;2023-04-21T06:06:14;19.30;;;14.52;;
47455;SDS011;33202;48.512;-2.780;2023-04-21T06:08:41;22.65;;;14.75;;
47455;SDS011;33202;48.512;-2.780;2023-04-21T06:11:07;22.77;;;15.18;;
47455;SDS011;33202;48.512;-2.780;2023-04-21T06:13:33;21.92;;;15.02;;
47455;SDS011;33202;48.512;-2.780;2023-04-21T06:15:59;20.75;;;14.40;;
47455;SDS011;33202;48.512;-2.780;2023-04-21T06:18:28;23.00;;;14.13;;
47455;SDS011;33202;48.512;-2.780;2023-04-21T06:20:54;18.50;;;14.10;;
47455;SDS011;33202;48.512;-2.780;2023-04-21T06:23:21;21.07;;;15.50;;
47455;SDS011;33202;48.512;-2.780;2023-04-21T06:25:57;20.90;;;14.63;;
47455;SDS011;33202;48.512;-2.780;2023-04-21T06:28:24;22.75;;;15.93;;
47455;SDS011;33202;48.512;-2.780;2023-04-21T06:30:50;18.70;;;13.93;;
47455;SDS011;33202;48.512;-2.780;2023-04-21T06:33:16;22.05;;;15.13;;
47455;SDS011;33202;48.512;-2.780;2023-04-21T06:35:42;21.10;;;15.02;;
47455;SDS011;33202;48.512;-2.780;2023-04-21T06:38:08;24.65;;;15.57;;
47455;SDS011;33202;48.512;-2.780;2023-04-21T06:40:34;21.15;;;14.43;;
47455;SDS011;33202;48.512;-2.780;2023-04-21T06:43:00;20.65;;;15.10;;
47455;SDS011;33202;48.512;-2.780;2023-04-21T06:45:26;24.08;;;15.93;;
47455;SDS011;33202;48.512;-2.780;2023-04-21T06:47:52;24.02;;;15.25;;
47455;SDS011;33202;48.512;-2.780;2023-04-21T06:50:18;22.35;;;15.63;;
47455;SDS011;33202;48.512;-2.780;2023-04-21T06:52:43;23.80;;;16.23;;
47455;SDS011;33202;48.512;-2.780;2023-04-21T06:55:10;20.02;;;14.10;;
47455;SDS011;33202;48.512;-2.780;2023-04-21T06:57:36;22.70;;;14.63;;
47455;SDS011;33202;48.512;-2.780;2023-04-21T07:00:02;24.05;;;16.33;;
47455;SDS011;33202;48.512;-2.780;2023-04-21T07:04:55;21.70;;;15.13;;
47455;SDS011;33202;48.512;-2.780;2023-04-21T07:07:21;22.60;;;15.85;;
47455;SDS011;33202;48.512;-2.780;2023-04-21T07:09:47;22.17;;;15.10;;
47455;SDS011;33202;48.512;-2.780;2023-04-21T07:12:13;19.25;;;14.98;;
47455;SDS011;33202;48.512;-2.780;2023-04-21T07:14:39;25.48;;;16.92;;
47455;SDS011;33202;48.512;-2.780;2023-04-21T07:17:05;22.48;;;16.17;;
47455;SDS011;33202;48.512;-2.780;2023-04-21T07:19:31;24.38;;;16.50;;
47455;SDS011;33202;48.512;-2.780;2023-04-21T07:21:57;23.83;;;16.30;;
47455;SDS011;33202;48.512;-2.780;2023-04-21T07:24:23;23.63;;;16.27;;
47455;SDS011;33202;48.512;-2.780;2023-04-21T07:26:49;27.75;;;17.23;;
47455;SDS011;33202;48.512;-2.780;2023-04-21T07:29:15;27.58;;;17.85;;
47455;SDS011;33202;48.512;-2.780;2023-04-21T07:31:41;30.02;;;16.83;;
47455;SDS011;33202;48.512;-2.780;2023-04-21T07:34:07;21.77;;;15.85;;
47455;SDS011;33202;48.512;-2.780;2023-04-21T07:36:33;23.23;;;16.23;;
47455;SDS011;33202;48.512;-2.780;2023-04-21T07:38:59;23.88;;;16.90;;
47455;SDS011;33202;48.512;-2.780;2023-04-21T07:41:26;22.33;;;16.02;;
47455;SDS011;33202;48.512;-2.780;2023-04-21T07:43:53;24.40;;;17.02;;
47455;SDS011;33202;48.512;-2.780;2023-04-21T07:46:19;21.77;;;16.20;;
47455;SDS011;33202;48.512;-2.780;2023-04-21T07:48:47;22.35;;;16.85;;
47455;SDS011;33202;48.512;-2.780;2023-04-21T07:51:13;21.75;;;15.90;;
47455;SDS011;33202;48.512;-2.780;2023-04-21T07:53:42;25.45;;;18.10;;
47455;SDS011;33202;48.512;-2.780;2023-04-21T07:56:07;27.50;;;17.75;;
47455;SDS011;33202;48.512;-2.780;2023-04-21T07:58:33;25.30;;;17.50;;
47455;SDS011;33202;48.512;-2.780;2023-04-21T08:00:59;22.60;;;17.77;;
47455;SDS011;33202;48.512;-2.780;2023-04-21T08:03:25;25.88;;;18.98;;
47455;SDS011;33202;48.512;-2.780;2023-04-21T08:05:51;26.83;;;18.35;;
47455;SDS011;33202;48.512;-2.780;2023-04-21T08:08:17;25.65;;;18.95;;
47455;SDS011;33202;48.512;-2.780;2023-04-21T08:10:45;33.15;;;18.75;;
47455;SDS011;33202;48.512;-2.780;2023-04-21T08:13:11;23.23;;;17.40;;
47455;SDS011;33202;48.512;-2.780;2023-04-21T08:15:37;25.42;;;18.35;;
47455;SDS011;33202;48.512;-2.780;2023-04-21T08:18:03;25.42;;;18.73;;
47455;SDS011;33202;48.512;-2.780;2023-04-21T08:20:29;28.02;;;17.80;;
47455;SDS011;33202;48.512;-2.780;2023-04-21T08:22:56;23.73;;;18.00;;
47455;SDS011;33202;48.512;-2.780;2023-04-21T08:25:22;26.83;;;18.52;;
47455;SDS011;33202;48.512;-2.780;2023-04-21T08:27:48;26.35;;;18.98;;
47455;SDS011;33202;48.512;-2.780;2023-04-21T08:30:14;27.35;;;19.20;;
47455;SDS011;33202;48.512;-2.780;2023-04-21T08:32:40;24.88;;;18.60;;
47455;SDS011;33202;48.512;-2.780;2023-04-21T08:35:06;27.98;;;19.27;;
47455;SDS011;33202;48.512;-2.780;2023-04-21T08:37:34;23.30;;;18.13;;
47455;SDS011;33202;48.512;-2.780;2023-04-21T08:40:01;24.95;;;18.17;;
